Time;durP1;ratioP1;P1;durP2;ratioP2;P2;SDS_P1;SDS_P2;PMS_P1;PMS_P2;Temp;Humidity;BMP_temperature;BMP_pressure;BME280_temperature;BME280_humidity;BME280_pressure;Samples;Min_cycle;Max_cycle;Signal;HPM_P1;HPM_P2
2021/04/13 00:02:58;;;;;;;6.35;3.53;;;;;;;1.10;99.69;102629.31;6224276;28;20053;-77
2021/04/13 00:05:59;;;;;;;6.95;3.70;;;;;;;1.02;98.79;102624.00;6224062;28;20496;-77
2021/04/13 00:09:06;;;;;;;7.68;3.35;;;;;;;0.95;99.99;102622.16;6224291;28;20085;-77
2021/04/13 00:12:16;;;;;;;5.60;3.08;;;;;;;0.91;98.97;102625.53;6225213;28;20522;-77
2021/04/13 00:15:22;;;;;;;;;;;;;;;0.86;100.00;102634.06;6226335;28;20045;-77
2021/04/13 00:18:26;;;;;;;9.23;3.28;;;;;;;0.87;98.96;102635.81;6223744;28;19987;-76
2021/04/13 00:21:30;;;;;;;5.00;3.03;;;;;;;0.86;99.86;102615.94;6223679;28;20458;-76
2021/04/13 00:24:31;;;;;;;5.28;3.45;;;;;;;0.87;99.72;102618.56;6223565;28;20100;-76
2021/04/13 00:27:32;;;;;;;8.30;3.33;;;;;;;0.87;99.91;102617.69;6223878;28;20046;-77
2021/04/13 00:30:43;;;;;;;6.60;3.47;;;;;;;0.87;100.00;102621.16;6223613;28;20050;-77
2021/04/13 00:33:44;;;;;;;11.10;3.80;;;;;;;0.89;100.00;102610.81;6223392;28;20513;-76
2021/04/13 00:36:45;;;;;;;6.20;3.30;;;;;;;0.91;100.00;102614.28;6223592;28;20138;-76
2021/04/13 00:39:47;;;;;;;7.07;3.08;;;;;;;0.92;100.00;102621.25;6223476;28;20054;-77
2021/04/13 00:42:49;;;;;;;7.15;3.20;;;;;;;0.86;99.42;102621.97;6223363;28;20046;-77
2021/04/13 00:45:52;;;;;;;7.50;3.15;;;;;;;0.84;99.70;102617.66;6223372;28;20674;-77
2021/04/13 00:48:54;;;;;;;7.63;3.22;;;;;;;0.79;99.61;102614.97;6223231;28;20435;-76
2021/04/13 00:51:59;;;;;;;8.38;3.35;;;;;;;0.81;100.00;102621.03;6222987;28;20045;-76
2021/04/13 00:55:02;;;;;;;7.10;3.70;;;;;;;0.85;100.00;102617.66;6222869;28;20045;-77
2021/04/13 00:58:10;;;;;;;5.43;3.25;;;;;;;0.85;100.00;102612.47;6222979;28;20104;-76
2021/04/13 01:01:19;;;;;;;13.38;3.00;;;;;;;0.89;99.54;102609.09;6222708;28;20418;-77
2021/04/13 01:04:27;;;;;;;7.90;3.30;;;;;;;0.87;99.99;102618.56;6222969;28;20238;-79
2021/04/13 01:07:32;;;;;;;11.55;3.92;;;;;;;0.85;99.73;102612.47;6223079;28;20052;-76
2021/04/13 01:10:37;;;;;;;9.65;3.17;;;;;;;0.83;99.36;102610.72;6222771;28;20056;-77
2021/04/13 01:13:46;;;;;;;5.07;3.28;;;;;;;0.87;99.40;102618.56;6222799;28;20050;-76
2021/04/13 01:16:54;;;;;;;7.97;3.15;;;;;;;0.84;98.81;102625.41;6222591;28;20089;-77
2021/04/13 01:20:03;;;;;;;8.90;4.07;;;;;;;0.84;99.56;102615.91;6222571;28;20054;-76
2021/04/13 01:23:07;;;;;;;7.63;3.30;;;;;;;0.90;98.21;102616.00;6222925;28;20046;-78
2021/04/13 01:26:08;;;;;;;7.55;3.28;;;;;;;1.14;98.10;102612.09;6223027;28;20052;-78
2021/04/13 01:29:11;;;;;;;9.70;3.80;;;;;;;0.93;98.13;102612.63;6222481;28;20068;-78
2021/04/13 01:32:16;;;;;;;8.85;3.88;;;;;;;0.82;99.39;102606.38;6223590;28;20045;-76
2021/04/13 01:35:17;;;;;;;8.27;3.20;;;;;;;0.93;98.29;102613.50;6222495;28;20041;-78
2021/04/13 01:38:22;;;;;;;8.15;3.05;;;;;;;0.89;98.93;102616.00;6222675;28;20057;-78
2021/04/13 01:41:30;;;;;;;6.45;3.83;;;;;;;0.91;98.40;102612.59;6222453;28;20046;-78
2021/04/13 01:44:34;;;;;;;7.55;3.53;;;;;;;0.79;99.05;102609.81;6222379;28;20056;-78
2021/04/13 01:47:37;;;;;;;9.57;3.80;;;;;;;0.78;100.00;102614.97;6222363;28;20505;-77
2021/04/13 01:50:41;;;;;;;6.18;3.53;;;;;;;0.89;99.26;102606.50;6222037;28;20108;-76
2021/04/13 01:53:46;;;;;;;16.50;4.63;;;;;;;0.92;98.67;102611.75;6222249;28;20054;-79
2021/04/13 01:57:02;;;;;;;8.15;3.40;;;;;;;1.03;97.51;102614.50;6222467;28;20069;-78
2021/04/13 02:00:14;;;;;;;7.80;3.28;;;;;;;0.85;98.75;102607.31;6222087;28;20046;-78
2021/04/13 02:03:22;;;;;;;13.32;3.42;;;;;;;0.93;97.60;102612.63;6223432;28;20053;-79
2021/04/13 02:06:28;;;;;;;10.90;3.33;;;;;;;0.78;98.92;102607.19;6222927;28;20100;-79
2021/04/13 02:09:38;;;;;;;8.45;3.53;;;;;;;0.91;98.56;102617.78;6223090;28;20526;-79
2021/04/13 02:12:44;;;;;;;6.63;2.97;;;;;;;0.88;97.98;102622.03;6222472;28;20070;-79
2021/04/13 02:15:56;;;;;;;8.38;3.47;;;;;;;0.73;98.59;102617.47;6222217;28;20050;-78
2021/04/13 02:19:00;;;;;;;11.32;3.40;;;;;;;0.69;99.65;102619.13;6222261;28;20049;-78
2021/04/13 02:22:06;;;;;;;10.82;3.40;;;;;;;0.63;100.00;102621.59;6222003;28;20096;-79
2021/04/13 02:25:08;;;;;;;9.52;3.42;;;;;;;0.67;100.00;102622.53;6221909;28;20066;-78
2021/04/13 02:28:10;;;;;;;13.70;3.67;;;;;;;0.63;100.00;102620.72;6221760;28;20053;-76
2021/04/13 02:31:14;;;;;;;5.60;3.42;;;;;;;0.62;100.00;102626.75;6221519;28;20049;-76
2021/04/13 02:34:19;;;;;;;8.13;3.38;;;;;;;0.65;100.00;102637.16;6224593;28;20050;-76
2021/04/13 02:37:26;;;;;;;9.23;3.58;;;;;;;0.64;100.00;102627.66;6226333;28;20057;-76
2021/04/13 02:40:36;;;;;;;10.50;3.53;;;;;;;0.64;100.00;102625.94;6226103;28;20046;-76
2021/04/13 02:43:42;;;;;;;10.80;3.97;;;;;;;0.64;100.00;102630.25;6225993;28;20057;-76
2021/04/13 02:46:43;;;;;;;7.75;3.70;;;;;;;0.64;100.00;102630.25;6225992;28;20056;-76
2021/04/13 02:49:45;;;;;;;13.73;3.50;;;;;;;0.61;100.00;102625.00;6226077;28;20061;-76
2021/04/13 02:52:50;;;;;;;11.15;3.50;;;;;;;0.60;100.00;102624.13;6225890;28;20050;-77
2021/04/13 02:55:54;;;;;;;6.35;3.40;;;;;;;0.60;100.00;102618.97;6225564;28;20133;-76
2021/04/13 02:59:08;;;;;;;8.77;3.22;;;;;;;0.62;100.00;102617.25;6225610;28;20383;-77
2021/04/13 03:02:16;;;;;;;10.48;3.65;;;;;;;0.62;100.00;102624.16;6225859;28;20056;-77
2021/04/13 03:05:21;;;;;;;17.00;4.95;;;;;;;0.75;100.00;102632.16;6225383;28;20053;-76
2021/04/13 03:08:22;;;;;;;9.43;3.42;;;;;;;0.65;100.00;102632.84;6225722;28;20054;-76
2021/04/13 03:11:26;;;;;;;12.82;4.00;;;;;;;0.64;100.00;102632.84;6225452;28;20068;-76
2021/04/13 03:14:33;;;;;;;10.55;3.65;;;;;;;0.62;100.00;102630.19;6225205;28;20050;-76
2021/04/13 03:17:36;;;;;;;13.27;4.00;;;;;;;0.58;100.00;102636.16;6225366;28;20049;-77
2021/04/13 03:20:46;;;;;;;16.10;3.58;;;;;;;0.62;100.00;102622.44;6225369;28;20050;-77
2021/04/13 03:23:48;;;;;;;7.93;3.25;;;;;;;0.56;100.00;102624.06;6225148;28;20061;-76
2021/04/13 03:26:53;;;;;;;6.45;3.65;;;;;;;0.81;100.00;102635.69;6225380;28;20052;-77
2021/04/13 03:30:00;;;;;;;8.75;3.00;;;;;;;0.74;100.00;102633.00;6225544;28;20054;-77
2021/04/13 03:33:07;;;;;;;7.68;3.10;;;;;;;0.89;100.00;102645.34;6226044;28;20430;-78
2021/04/13 03:36:14;;;;;;;6.47;3.25;;;;;;;0.73;100.00;102645.94;6225695;28;20641;-78
2021/04/13 03:39:19;;;;;;;11.70;3.33;;;;;;;0.87;100.00;102639.28;6226275;28;20053;-76
2021/04/13 03:42:25;;;;;;;6.72;3.40;;;;;;;0.83;100.00;102642.66;6225819;28;20062;-77
2021/04/13 03:45:27;;;;;;;10.25;3.78;;;;;;;0.71;100.00;102647.59;6225079;28;20060;-76
2021/04/13 03:48:31;;;;;;;19.95;4.65;;;;;;;0.91;100.00;102642.75;6225641;28;20053;-77
2021/04/13 03:51:35;;;;;;;7.95;3.60;;;;;;;0.76;100.00;102646.84;6225493;28;20046;-77
2021/04/13 03:54:39;;;;;;;9.20;3.30;;;;;;;0.73;100.00;102643.34;6225271;28;20046;-77
2021/04/13 03:57:40;;;;;;;12.95;4.50;;;;;;;0.67;100.00;102646.66;6225687;28;20065;-77
2021/04/13 04:00:41;;;;;;;6.00;3.55;;;;;;;0.82;100.00;102643.50;6225489;28;20053;-77
2021/04/13 04:03:44;;;;;;;11.45;3.80;;;;;;;0.74;100.00;102645.09;6225212;28;20422;-76
2021/04/13 04:06:51;;;;;;;13.23;4.15;;;;;;;0.59;100.00;102647.38;6225048;28;20104;-76
2021/04/13 04:09:52;;;;;;;15.15;3.95;;;;;;;0.56;100.00;102647.34;6225009;28;20054;-77
2021/04/13 04:12:58;;;;;;;9.52;4.15;;;;;;;0.53;100.00;102653.31;6225128;28;20557;-77
2021/04/13 04:16:15;;;;;;;15.00;4.40;;;;;;;0.52;100.00;102653.28;6225094;28;20054;-77
2021/04/13 04:19:18;;;;;;;12.52;3.92;;;;;;;0.47;100.00;102658.38;6225031;28;20497;-77
2021/04/13 04:22:23;;;;;;;18.02;4.50;;;;;;;0.40;100.00;102661.69;6224967;28;20061;-77
2021/04/13 04:25:32;;;;;;;9.63;3.65;;;;;;;0.38;100.00;102664.25;6224609;28;20081;-77
2021/04/13 04:28:36;;;;;;;13.52;4.80;;;;;;;0.34;100.00;102670.19;6224645;28;20050;-76
2021/04/13 04:31:39;;;;;;;18.67;4.35;;;;;;;0.33;100.00;102678.81;6224684;28;20096;-77
2021/04/13 04:34:48;;;;;;;11.90;4.40;;;;;;;0.31;100.00;102675.28;6224424;28;20052;-77
2021/04/13 04:38:10;;;;;;;10.75;4.88;;;;;;;0.28;100.00;102677.84;6224596;28;20053;-76
2021/04/13 04:41:11;;;;;;;7.07;4.20;;;;;;;0.28;100.00;102685.59;6223946;28;20104;-77
2021/04/13 04:44:19;;;;;;;15.77;4.20;;;;;;;0.28;100.00;102685.59;6224020;28;20077;-77
2021/04/13 04:47:34;;;;;;;13.20;4.80;;;;;;;0.25;100.00;102699.31;6224465;28;20053;-76
2021/04/13 04:50:34;;;;;;;17.70;5.32;;;;;;;0.27;100.00;102690.72;6224133;28;20049;-77
2021/04/13 04:53:38;;;;;;;11.52;4.68;;;;;;;0.33;100.00;102698.63;6223508;28;20054;-76
2021/04/13 04:56:39;;;;;;;15.25;5.00;;;;;;;0.38;100.00;102703.03;6223139;28;20061;-76
2021/04/13 04:59:39;;;;;;;8.20;4.57;;;;;;;0.47;100.00;102703.22;6223021;28;20054;-76
2021/04/13 05:02:40;;;;;;;12.38;4.88;;;;;;;0.59;100.00;102701.69;6223706;28;20053;-77
2021/04/13 05:05:42;;;;;;;9.35;3.90;;;;;;;0.63;100.00;102700.91;6223449;28;20053;-76
2021/04/13 05:08:43;;;;;;;12.10;4.00;;;;;;;0.52;100.00;102705.88;6224027;28;20049;-77
2021/04/13 05:11:44;;;;;;;13.73;4.38;;;;;;;0.55;100.00;102715.44;6223308;28;20058;-77
2021/04/13 05:14:45;;;;;;;12.18;4.97;;;;;;;0.40;100.00;102713.41;6223283;28;20053;-77
2021/04/13 05:17:46;;;;;;;14.80;5.07;;;;;;;0.39;100.00;102709.94;6223500;28;20137;-77
2021/04/13 05:20:47;;;;;;;11.50;4.90;;;;;;;0.44;100.00;102716.06;6223670;28;20119;-77
2021/04/13 05:23:48;;;;;;;15.65;5.40;;;;;;;0.43;100.00;102721.22;6223541;28;20053;-76
2021/04/13 05:26:49;;;;;;;14.77;5.60;;;;;;;0.43;100.00;102719.50;6223708;28;20050;-77
2021/04/13 05:29:50;;;;;;;12.02;5.25;;;;;;;0.47;100.00;102718.72;6223839;28;20137;-77
2021/04/13 05:32:52;;;;;;;12.27;4.82;;;;;;;0.50;100.00;102723.09;6223499;28;20058;-77
2021/04/13 05:35:53;;;;;;;14.18;5.53;;;;;;;0.52;100.00;102730.88;6223537;28;20053;-77
2021/04/13 05:38:55;;;;;;;16.17;5.10;;;;;;;0.57;100.00;102735.31;6223392;28;20049;-77
2021/04/13 05:41:59;;;;;;;9.25;5.03;;;;;;;0.54;100.00;102734.38;6223802;28;20053;-77
2021/04/13 05:45:01;;;;;;;15.93;4.93;;;;;;;0.56;100.00;102743.03;6239252;28;20052;-77
2021/04/13 05:48:03;;;;;;;10.93;4.85;;;;;;;0.61;100.00;102741.41;6235457;28;20056;-77
2021/04/13 05:51:05;;;;;;;16.17;5.28;;;;;;;0.62;100.00;102743.16;6250770;28;20049;-77
2021/04/13 05:54:07;;;;;;;13.15;4.72;;;;;;;0.67;100.00;102751.88;6252409;28;20057;-77
2021/04/13 05:57:11;;;;;;;17.58;5.45;;;;;;;0.82;100.00;102754.78;6252401;28;20045;-77
2021/04/13 06:00:13;;;;;;;14.13;4.97;;;;;;;0.82;100.00;102752.19;6245094;28;20049;-77
2021/04/13 06:03:16;;;;;;;12.88;4.32;;;;;;;0.79;100.00;102749.53;6243162;28;20041;-77
2021/04/13 06:06:18;;;;;;;12.45;4.75;;;;;;;0.79;100.00;102759.03;6253093;28;20076;-77
2021/04/13 06:09:20;;;;;;;9.50;4.03;;;;;;;0.96;100.00;102755.91;6248499;28;20512;-78
2021/04/13 06:12:22;;;;;;;15.90;4.65;;;;;;;0.97;100.00;102761.97;6257962;28;20200;-77
2021/04/13 06:15:25;;;;;;;9.88;4.32;;;;;;;0.88;100.00;102772.13;6257070;28;20107;-78
2021/04/13 06:18:26;;;;;;;14.95;4.95;;;;;;;0.92;100.00;102767.06;6257891;28;20568;-77
2021/04/13 06:21:27;;;;;;;14.32;4.60;;;;;;;1.07;100.00;102765.59;6257231;28;20057;-77
2021/04/13 06:24:29;;;;;;;18.52;5.40;;;;;;;1.11;100.00;102769.97;6257291;28;20057;-77
2021/04/13 06:27:30;;;;;;;17.25;5.60;;;;;;;1.35;100.00;102770.41;6257287;28;20065;-77
2021/04/13 06:30:31;;;;;;;12.57;4.95;;;;;;;1.31;100.00;102772.91;6256520;28;20053;-77
2021/04/13 06:33:32;;;;;;;13.35;4.63;;;;;;;1.68;100.00;102771.81;6241805;28;20049;-77
2021/04/13 06:36:36;;;;;;;12.88;3.70;;;;;;;1.68;100.00;102771.81;6243297;28;20065;-77
2021/04/13 06:39:38;;;;;;;5.97;3.40;;;;;;;1.94;100.00;102767.03;6240074;28;20050;-77
2021/04/13 06:42:51;;;;;;;12.95;3.47;;;;;;;1.95;100.00;102776.53;6241035;28;20056;-77
2021/04/13 06:46:00;;;;;;;13.80;3.55;;;;;;;2.00;100.00;102782.69;6240550;28;20044;-76
2021/04/13 06:49:09;;;;;;;11.25;3.60;;;;;;;1.98;100.00;102782.66;6237800;28;20493;-77
2021/04/13 06:52:20;;;;;;;18.45;5.00;;;;;;;2.12;100.00;102789.78;6240606;28;20422;-78
2021/04/13 06:55:40;;;;;;;18.67;4.43;;;;;;;2.14;99.86;102785.50;6240352;28;20056;-78
2021/04/13 06:59:07;;;;;;;14.43;4.50;;;;;;;2.15;99.17;102787.22;6231888;28;20053;-78
2021/04/13 07:02:14;;;;;;;14.20;4.53;;;;;;;2.11;99.84;102786.31;6239285;28;20050;-79
2021/04/13 07:05:19;;;;;;;16.52;5.45;;;;;;;2.46;99.45;102785.94;6236163;28;20111;-77
2021/04/13 07:08:29;;;;;;;16.42;4.90;;;;;;;2.52;98.66;102783.41;6247990;28;20049;-78
2021/04/13 07:11:36;;;;;;;16.05;4.72;;;;;;;2.41;99.66;102796.25;6253198;28;20458;-78
2021/04/13 07:14:46;;;;;;;18.48;5.05;;;;;;;2.42;99.33;102790.22;6249814;28;20057;-81
2021/04/13 07:17:52;;;;;;;13.82;4.47;;;;;;;2.46;98.62;102801.50;6253682;28;20049;-78
2021/04/13 07:20:59;;;;;;;14.85;3.22;;;;;;;2.77;97.25;102815.72;6253252;28;20056;-80
2021/04/13 07:24:09;;;;;;;12.38;4.10;;;;;;;2.66;98.36;102800.03;6255670;28;20053;-80
2021/04/13 07:27:14;;;;;;;11.48;3.85;;;;;;;2.79;98.32;102806.25;6255780;28;20038;-80
2021/04/13 07:30:26;;;;;;;13.48;3.63;;;;;;;2.78;98.06;102813.16;6250413;28;20084;-77
2021/04/13 07:33:30;;;;;;;14.63;3.17;;;;;;;2.96;97.08;102814.25;6250181;28;20497;-76
2021/04/13 07:36:36;;;;;;;13.43;3.33;;;;;;;3.07;96.23;102811.75;6249703;28;20050;-76
2021/04/13 07:39:39;;;;;;;10.80;2.90;;;;;;;3.35;94.44;102815.50;6250370;28;20071;-79
2021/04/13 07:42:45;;;;;;;19.05;4.82;;;;;;;3.42;94.00;102810.38;6248448;28;20061;-76
2021/04/13 07:45:52;;;;;;;10.55;2.15;;;;;;;3.45;93.99;102807.81;6237537;28;20151;-76
2021/04/13 07:49:08;;;;;;;13.40;2.65;;;;;;;3.66;93.33;102814.94;6225845;28;20072;-77
2021/04/13 07:52:19;;;;;;;7.43;2.40;;;;;;;3.73;92.64;102827.13;6239308;28;20079;-77
2021/04/13 07:55:22;;;;;;;14.40;2.60;;;;;;;3.86;93.03;102815.13;6235161;28;20049;-77
2021/04/13 07:58:38;;;;;;;20.20;4.53;;;;;;;3.96;91.63;102813.44;6239955;28;20049;-78
2021/04/13 08:01:39;;;;;;;9.75;2.40;;;;;;;3.91;92.23;102820.34;6245590;28;20091;-80
2021/04/13 08:04:47;;;;;;;15.82;2.20;;;;;;;4.21;90.46;102820.53;6231280;28;20046;-80
2021/04/13 08:08:04;;;;;;;11.88;2.92;;;;;;;4.09;90.42;102825.69;6213072;28;20564;-78
2021/04/13 08:11:09;;;;;;;10.38;2.08;;;;;;;4.13;90.83;102824.81;6225242;28;20056;-77
2021/04/13 08:14:18;;;;;;;12.13;2.60;;;;;;;4.39;88.63;102822.38;6224658;28;20054;-75
2021/04/13 08:17:23;;;;;;;19.33;3.40;;;;;;;4.44;88.35;102825.00;6225186;28;20050;-77
2021/04/13 08:20:26;;;;;;;12.52;2.55;;;;;;;4.41;87.90;102820.69;6224692;28;20057;-76
2021/04/13 08:23:37;;;;;;;13.02;2.08;;;;;;;4.47;88.68;102823.31;6223931;28;20046;-76
2021/04/13 08:26:42;;;;;;;14.32;1.98;;;;;;;4.64;86.19;102828.59;6224867;28;20406;-78
2021/04/13 08:29:49;;;;;;;11.10;1.95;;;;;;;4.71;85.15;102830.34;6224466;28;20053;-76
2021/04/13 08:33:02;;;;;;;23.65;4.93;;;;;;;4.94;83.69;102820.03;6233910;28;20041;-79
2021/04/13 08:36:10;;;;;;;18.73;2.50;;;;;;;4.96;81.56;102830.47;6234069;28;20049;-78
2021/04/13 08:39:19;;;;;;;12.13;2.85;;;;;;;5.07;80.46;102831.38;6234650;28;20559;-78
2021/04/13 08:42:29;;;;;;;15.20;2.40;;;;;;;5.17;79.25;102832.25;6234159;28;20049;-76
2021/04/13 08:45:38;;;;;;;15.13;1.92;;;;;;;5.18;76.81;102828.78;6233439;28;20461;-77
2021/04/13 08:48:43;;;;;;;;;;;;;;;5.39;75.13;102820.16;6236202;28;20046;-78
2021/04/13 08:51:46;;;;;;;17.83;1.80;;;;;;;5.59;76.73;102823.66;6237573;28;20296;-77
2021/04/13 08:54:49;;;;;;;13.77;1.80;;;;;;;5.49;76.48;102825.38;6238237;28;20049;-79
2021/04/13 08:58:04;;;;;;;15.52;2.00;;;;;;;5.81;74.97;102832.34;6234513;28;20049;-77
2021/04/13 09:01:23;;;;;;;17.35;2.00;;;;;;;5.66;75.07;102841.03;6259055;23;20535;-75
2021/04/13 09:04:30;;;;;;;12.98;1.42;;;;;;;5.64;74.55;102831.50;6217504;28;20449;-75
2021/04/13 09:07:42;;;;;;;14.27;1.60;;;;;;;5.66;74.43;102832.34;6201818;28;20057;-75
2021/04/13 09:10:49;;;;;;;15.35;1.67;;;;;;;5.73;74.63;102832.38;6207659;28;20097;-76
2021/04/13 09:14:02;;;;;;;13.10;1.67;;;;;;;5.69;74.40;102837.56;6183749;28;20047;-75
2021/04/13 09:17:12;;;;;;;9.65;2.00;;;;;;;5.58;74.12;102830.59;6184243;28;20050;-75
2021/04/13 09:20:20;;;;;;;21.30;2.38;;;;;;;5.72;73.52;102828.03;6179783;28;20546;-75
2021/04/13 09:23:26;;;;;;;15.57;1.70;;;;;;;5.78;74.37;102825.41;6188691;28;20050;-75
2021/04/13 09:26:40;;;;;;;14.07;1.80;;;;;;;6.07;72.51;102819.31;6183538;28;20062;-74
2021/04/13 09:29:45;;;;;;;11.13;1.40;;;;;;;6.25;70.78;102810.59;6182660;28;20051;-74
2021/04/13 09:32:49;;;;;;;13.73;2.00;;;;;;;6.34;70.14;102821.00;6184609;28;20046;-73
2021/04/13 09:36:23;;;;;;;11.10;1.92;;;;;;;6.31;70.03;102810.56;6187908;28;20109;-74
2021/04/13 09:39:56;;;;;;;9.98;2.05;;;;;;;6.60;71.41;102819.19;6172109;28;20047;-74
2021/04/13 09:43:12;;;;;;;17.15;2.15;;;;;;;6.32;70.44;102802.75;6182602;28;20046;-74
2021/04/13 09:46:29;;;;;;;18.40;1.90;;;;;;;6.14;68.55;102805.41;6176087;28;20054;-74
2021/04/13 09:49:47;;;;;;;12.90;1.80;;;;;;;6.26;69.08;102797.53;6173514;28;20089;-74
2021/04/13 09:53:12;;;;;;;15.95;1.73;;;;;;;6.63;64.75;102797.41;6180416;28;20057;-72
2021/04/13 09:56:29;;;;;;;8.07;1.45;;;;;;;6.44;65.50;102794.00;6196807;28;20065;-73
2021/04/13 09:59:46;;;;;;;8.98;1.50;;;;;;;6.30;67.66;102801.88;6180841;28;20058;-75
2021/04/13 10:03:12;;;;;;;11.23;1.83;;;;;;;6.33;67.21;102796.66;6172858;28;20133;-73
2021/04/13 10:06:15;;;;;;;10.25;1.33;;;;;;;6.45;67.97;102794.84;6167360;28;20057;-73
2021/04/13 10:09:25;;;;;;;15.40;1.20;;;;;;;6.61;65.27;102789.59;6196999;28;20085;-73
2021/04/13 10:12:57;;;;;;;10.65;1.50;;;;;;;6.61;63.09;102788.72;6196954;28;20065;-73
2021/04/13 10:16:16;;;;;;;10.00;1.90;;;;;;;6.87;65.53;102778.16;6196637;28;20066;-73
2021/04/13 10:20:01;;;;;;;7.32;1.23;;;;;;;7.18;63.11;102783.22;6197162;28;20057;-73
2021/04/13 10:23:32;;;;;;;12.10;1.65;;;;;;;7.26;61.24;102777.03;6189173;28;20502;-72
2021/04/13 10:26:58;;;;;;;14.75;1.63;;;;;;;7.05;59.96;102777.19;6192516;28;20053;-74
2021/04/13 10:30:17;;;;;;;10.45;1.85;;;;;;;7.20;62.33;102769.22;6196743;28;20109;-73
2021/04/13 10:33:41;;;;;;;12.70;2.03;;;;;;;7.22;61.81;102762.25;6196497;28;20568;-73
2021/04/13 10:37:09;;;;;;;14.13;3.35;;;;;;;7.74;59.76;102760.97;6196729;28;20050;-74
2021/04/13 10:40:28;;;;;;;6.88;1.63;;;;;;;7.62;59.86;102759.31;6196862;28;20065;-74
2021/04/13 10:44:20;;;;;;;17.15;1.77;;;;;;;7.45;61.60;102772.56;6196323;28;20089;-72
2021/04/13 10:47:54;;;;;;;10.98;1.55;;;;;;;7.22;61.94;102764.88;6196666;28;20498;-74
2021/04/13 10:51:14;;;;;;;6.07;1.55;;;;;;;7.13;59.42;102762.31;6196747;28;20046;-73
2021/04/13 10:54:42;;;;;;;9.80;1.13;;;;;;;7.49;57.01;102760.28;6197695;28;20054;-74
2021/04/13 10:58:06;;;;;;;14.40;1.58;;;;;;;7.86;56.17;102751.25;6199990;28;20046;-74
2021/04/13 11:01:28;;;;;;;11.02;1.50;;;;;;;7.77;57.69;102751.34;6200737;28;20449;-72
2021/04/13 11:05:03;;;;;;;8.77;1.65;;;;;;;7.53;54.73;102748.94;6200857;28;20051;-73
2021/04/13 11:08:36;;;;;;;5.97;1.20;;;;;;;7.56;53.53;102743.69;6200345;28;20057;-74
2021/04/13 11:12:14;;;;;;;5.68;1.38;;;;;;;7.91;55.32;102743.34;6200815;28;20050;-73
2021/04/13 11:15:42;;;;;;;11.82;2.20;;;;;;;8.19;54.98;102759.63;6200367;28;20487;-74
2021/04/13 11:19:19;;;;;;;9.95;2.25;;;;;;;7.98;63.25;102763.34;6199438;28;20057;-73
2021/04/13 11:22:39;;;;;;;7.22;1.88;;;;;;;7.53;67.55;102762.88;6185936;28;20069;-72
2021/04/13 11:26:18;;;;;;;9.82;1.55;;;;;;;7.32;69.13;102752.59;6199513;28;20450;-72
2021/04/13 11:29:38;;;;;;;12.32;1.88;;;;;;;6.99;69.19;102756.28;6200635;28;20050;-73
2021/04/13 11:33:05;;;;;;;7.93;1.30;;;;;;;6.68;69.12;102794.81;6200366;28;20050;-73
2021/04/13 11:36:15;;;;;;;18.77;3.38;;;;;;;6.54;71.19;102793.09;6199962;28;20419;-72
2021/04/13 11:39:31;;;;;;;8.00;0.85;;;;;;;6.70;67.82;102793.91;6200174;28;20521;-73
2021/04/13 11:42:36;;;;;;;4.22;1.25;;;;;;;6.40;68.68;102789.66;6184499;28;20096;-73
2021/04/13 11:45:49;;;;;;;3.17;0.70;;;;;;;6.31;67.97;102774.91;6199904;28;20057;-73
2021/04/13 11:48:55;;;;;;;8.70;1.63;;;;;;;6.28;69.72;102768.81;6200205;28;20051;-73
2021/04/13 11:51:58;;;;;;;5.47;0.90;;;;;;;6.63;69.08;102765.19;6193935;28;20518;-73
2021/04/13 11:55:00;;;;;;;4.00;0.90;;;;;;;7.08;67.38;102751.00;6178053;28;20498;-73
2021/04/13 11:58:09;;;;;;;11.02;1.02;;;;;;;7.71;62.46;102742.66;6176266;28;20507;-72
2021/04/13 12:01:35;;;;;;;7.15;1.20;;;;;;;8.17;61.51;102739.56;6197760;28;20050;-73
2021/04/13 12:04:43;;;;;;;6.50;0.93;;;;;;;8.41;60.10;102743.72;6198830;28;20057;-73
2021/04/13 12:07:46;;;;;;;5.15;1.25;;;;;;;9.07;57.51;102735.78;6199193;28;20042;-72
2021/04/13 12:10:54;;;;;;;7.38;1.90;;;;;;;9.09;56.70;102736.66;6188755;28;20051;-73
2021/04/13 12:13:55;;;;;;;5.25;1.35;;;;;;;8.74;57.05;102745.88;6175202;28;20181;-72
2021/04/13 12:17:11;;;;;;;9.02;1.90;;;;;;;7.92;64.49;102749.44;6174983;28;20059;-72
2021/04/13 12:20:40;;;;;;;8.57;1.00;;;;;;;6.91;72.80;102806.00;6175309;28;20061;-73
2021/04/13 12:23:44;;;;;;;8.93;1.67;;;;;;;5.09;81.01;102803.59;6174938;28;20125;-77
2021/04/13 12:26:47;;;;;;;5.50;1.38;;;;;;;3.72;88.54;102825.38;6175020;28;20054;-74
2021/04/13 12:29:48;;;;;;;9.27;1.30;;;;;;;3.15;97.55;102823.97;6173806;28;20050;-75
2021/04/13 12:32:48;;;;;;;9.82;1.65;;;;;;;3.05;100.00;102825.59;6174569;28;20102;-75
2021/04/13 12:35:55;;;;;;;12.45;2.05;;;;;;;3.16;100.00;102824.84;6195566;28;20482;-75
2021/04/13 12:38:58;;;;;;;9.70;2.53;;;;;;;3.30;100.00;102833.66;6199619;28;20499;-76
2021/04/13 12:42:01;;;;;;;7.50;2.03;;;;;;;3.21;100.00;102833.53;6199061;28;20054;-76
2021/04/13 12:45:35;;;;;;;9.75;1.45;;;;;;;3.17;100.00;102835.22;6198583;28;20450;-75
2021/04/13 12:48:43;;;;;;;4.22;1.33;;;;;;;3.25;100.00;102819.75;6198654;28;20058;-75
2021/04/13 12:51:52;;;;;;;4.43;1.10;;;;;;;3.31;98.62;102840.56;6198725;28;20129;-75
2021/04/13 12:54:53;;;;;;;7.75;1.95;;;;;;;3.43;100.00;102839.84;6198231;28;20065;-76
2021/04/13 12:57:57;;;;;;;4.97;1.75;;;;;;;3.45;100.00;102830.31;6198730;28;20097;-76
2021/04/13 13:00:58;;;;;;;12.15;1.40;;;;;;;3.51;100.00;102827.81;6198197;28;20047;-76
2021/04/13 13:04:06;;;;;;;5.05;1.42;;;;;;;3.67;100.00;102810.59;6198172;28;20057;-75
2021/04/13 13:07:20;;;;;;;18.33;3.95;;;;;;;3.96;98.34;102808.25;6188458;28;20054;-75
2021/04/13 13:10:26;;;;;;;5.68;2.55;;;;;;;4.37;98.11;102805.91;6174096;28;20051;-76
2021/04/13 13:13:30;;;;;;;9.38;2.10;;;;;;;5.18;100.00;102797.50;6173750;28;20043;-75
2021/04/13 13:16:31;;;;;;;11.18;1.60;;;;;;;5.75;100.00;102803.66;6173175;28;20703;-75
2021/04/13 13:19:42;;;;;;;4.32;1.40;;;;;;;6.69;97.92;102805.22;6173640;28;20400;-75
2021/04/13 13:22:48;;;;;;;4.32;1.65;;;;;;;7.38;88.37;102792.63;6175639;28;20055;-72
2021/04/13 13:25:49;;;;;;;6.47;1.10;;;;;;;7.37;82.99;102790.91;6197774;28;20051;-74
2021/04/13 13:28:50;;;;;;;7.78;1.20;;;;;;;7.53;83.18;102783.81;6195141;28;20046;-74
2021/04/13 13:31:52;;;;;;;3.25;0.95;;;;;;;7.18;78.89;102793.66;6188400;28;20055;-73
2021/04/13 13:34:56;;;;;;;6.43;1.08;;;;;;;6.64;82.12;102803.53;6173885;28;20050;-74
2021/04/13 13:38:00;;;;;;;6.07;1.10;;;;;;;6.28;85.61;102819.28;6173904;28;20054;-73
2021/04/13 13:41:02;;;;;;;9.23;1.40;;;;;;;5.14;86.44;102812.28;6173820;28;20443;-74
2021/04/13 13:44:03;;;;;;;8.77;1.10;;;;;;;4.64;94.79;102797.34;6179833;28;20634;-75
2021/04/13 13:47:16;;;;;;;6.28;1.40;;;;;;;4.68;91.00;102788.69;6190081;28;20047;-74
2021/04/13 13:50:27;;;;;;;4.75;0.70;;;;;;;5.01;87.70;102800.97;6191745;28;20050;-75
2021/04/13 13:53:29;;;;;;;4.47;0.60;;;;;;;5.15;91.31;102807.94;6197393;28;20434;-74
2021/04/13 13:56:32;;;;;;;7.30;1.00;;;;;;;5.46;90.45;102799.31;6197759;28;20057;-75
2021/04/13 13:59:43;;;;;;;3.42;1.10;;;;;;;6.39;88.89;102797.50;6197702;28;20057;-75
2021/04/13 14:02:45;;;;;;;7.65;1.17;;;;;;;6.77;80.52;102797.38;6179551;28;20073;-73
2021/04/13 14:05:49;;;;;;;9.10;1.10;;;;;;;6.00;80.56;102794.13;6187209;28;20050;-74
2021/04/13 14:08:52;;;;;;;3.80;0.93;;;;;;;5.63;81.29;102796.69;6197836;28;20050;-73
2021/04/13 14:11:52;;;;;;;6.80;1.13;;;;;;;5.29;83.15;102794.06;6197481;28;20050;-73
2021/04/13 14:14:54;;;;;;;8.10;0.82;;;;;;;5.19;84.84;102796.66;6183397;28;20087;-74
2021/04/13 14:18:06;;;;;;;6.22;1.27;;;;;;;5.13;86.46;102810.53;6173633;28;20387;-72
2021/04/13 14:21:09;;;;;;;2.58;0.65;;;;;;;4.90;86.72;102793.97;6173752;28;20069;-75
2021/04/13 14:24:19;;;;;;;3.70;0.88;;;;;;;4.80;86.73;102806.09;6173336;28;20499;-74
2021/04/13 14:27:23;;;;;;;10.18;1.58;;;;;;;4.82;86.36;102801.78;6173939;28;20054;-75
2021/04/13 14:30:28;;;;;;;4.45;0.88;;;;;;;4.66;85.96;102797.34;6178252;28;20133;-74
2021/04/13 14:33:29;;;;;;;4.75;1.20;;;;;;;4.50;85.43;102781.69;6178128;28;20684;-73
2021/04/13 14:36:30;;;;;;;6.43;0.82;;;;;;;4.62;86.60;102779.97;6178225;28;20049;-73
2021/04/13 14:39:33;;;;;;;4.93;0.85;;;;;;;5.19;85.09;102781.03;6178361;28;20074;-73